Terminal Aerodrome Forecast
Issued by NWS

Home | Current Version | Previous Version | Text Only | Print | Product List | Glossary Off
Versions: 1 2 3 4 5 6 7 8 9 10 11 12 13 14 15 16

000
FTUS43 KGRB 250800 AAA
TAFAUW
TAF AMD
KAUW 250839Z 2509/2606 27006KT P6SM SCT015 OVC020
     FM251500 23007KT P6SM SCT015 OVC022
     FM252200 19005KT P6SM SCT022 OVC090
     FM260200 00000KT 6SM BR SCT100 BKN250=

USA.gov is the U.S. government's official web portal to all federal, state and local government web resources and services.